createdAt,value
2017-06-24T00:00:46.517Z,18.8
2017-06-24T00:01:49.420Z,19.5
2017-06-24T00:02:51.276Z,19.2
2017-06-24T00:03:53.144Z,19.1
2017-06-24T00:04:54.938Z,19.1
2017-06-24T00:06:13.512Z,19.0
2017-06-24T00:07:15.313Z,19.3
2017-06-24T00:08:19.111Z,18.7
2017-06-24T00:09:20.839Z,19.3
2017-06-24T00:10:24.770Z,19.3
2017-06-24T00:11:26.552Z,19.5
2017-06-24T00:12:30.476Z,19.2
2017-06-24T00:13:32.302Z,19.3
2017-06-24T00:14:48.878Z,19.0
2017-06-24T00:15:50.633Z,18.8
2017-06-24T00:16:54.494Z,19.1
2017-06-24T00:17:56.273Z,19.1
2017-06-24T00:19:00.210Z,19.0
2017-06-24T00:20:02.035Z,18.3
2017-06-24T00:21:19.532Z,18.4
2017-06-24T00:22:21.488Z,19.0
2017-06-24T00:23:23.305Z,19.1
2017-06-24T00:24:25.021Z,19.1
2017-06-24T00:25:31.560Z,18.8
2017-06-24T00:26:33.446Z,18.8
2017-06-24T00:27:35.256Z,18.7
2017-06-24T00:28:37.039Z,18.4
2017-06-24T00:29:49.420Z,18.6
2017-06-24T00:30:51.269Z,18.7
2017-06-24T00:32:06.008Z,18.3
2017-06-24T00:33:07.770Z,18.7
2017-06-24T00:34:14.606Z,18.5
2017-06-24T00:35:16.484Z,18.4
2017-06-24T00:36:24.072Z,17.8
2017-06-24T00:37:25.792Z,18.5
2017-06-24T00:38:29.512Z,19.1
2017-06-24T00:39:31.381Z,19.3
2017-06-24T00:40:48.985Z,18.6
2017-06-24T00:41:50.737Z,18.6
2017-06-24T00:42:52.605Z,18.4
2017-06-24T00:43:54.361Z,18.1
2017-06-24T00:46:06.190Z,18.6
2017-06-24T00:47:08.041Z,19.1
2017-06-24T00:48:09.841Z,19.0
2017-06-24T00:49:16.234Z,18.7
2017-06-24T00:50:18.043Z,18.3
2017-06-24T00:51:24.806Z,19.0
2017-06-24T00:52:26.555Z,18.5
2017-06-24T00:53:34.122Z,19.1
2017-06-24T00:54:36.042Z,19.1
2017-06-24T00:55:43.958Z,18.5
2017-06-24T00:56:45.721Z,18.1
2017-06-24T00:57:48.592Z,19.2
2017-06-24T00:58:50.490Z,18.7
2017-06-24T00:59:52.298Z,19.5
2017-06-24T01:00:53.979Z,19.3
2017-06-24T01:01:55.764Z,18.8
2017-06-24T01:02:57.503Z,18.8
2017-06-24T01:03:59.256Z,19.4
2017-06-24T01:05:01.062Z,18.6
2017-06-24T01:06:02.811Z,18.5
2017-06-24T01:07:04.940Z,18.5
2017-06-24T01:08:06.707Z,18.1
2017-06-24T01:09:08.483Z,18.4
2017-06-24T01:10:10.281Z,18.4
2017-06-24T01:11:12.238Z,18.6
2017-06-24T01:12:14.123Z,18.7
2017-06-24T01:13:15.895Z,18.6
2017-06-24T01:14:17.685Z,18.8
2017-06-24T01:15:19.460Z,18.8
2017-06-24T01:16:21.345Z,19.1
2017-06-24T01:17:23.123Z,19.3
2017-06-24T01:18:24.936Z,19.5
2017-06-24T01:19:26.998Z,19.6
2017-06-24T01:20:28.769Z,19.3
2017-06-24T01:21:30.804Z,18.2
2017-06-24T01:22:32.626Z,19.6
2017-06-24T01:23:34.370Z,18.6
2017-06-24T01:24:36.129Z,19.0
2017-06-24T01:25:37.914Z,18.6
2017-06-24T01:26:39.626Z,19.3
2017-06-24T01:27:41.441Z,18.7
2017-06-24T01:28:43.245Z,18.8
2017-06-24T01:29:45.007Z,18.7
2017-06-24T01:30:46.805Z,19.1
2017-06-24T01:31:48.555Z,18.8
2017-06-24T01:32:50.301Z,19.4
2017-06-24T01:33:52.049Z,19.2
2017-06-24T01:34:53.820Z,19.5
2017-06-24T01:35:55.795Z,19.2
2017-06-24T01:36:57.849Z,18.7
2017-06-24T01:37:59.596Z,18.8
2017-06-24T01:39:01.394Z,19.1
2017-06-24T01:40:04.170Z,18.1
2017-06-24T01:41:05.964Z,18.6
2017-06-24T01:42:07.852Z,18.6
2017-06-24T01:43:09.624Z,19.2
2017-06-24T01:44:13.443Z,18.8
2017-06-24T01:45:15.218Z,18.8
2017-06-24T01:46:19.051Z,19.5
2017-06-24T01:47:20.806Z,18.4
2017-06-24T01:54:24.749Z,19.2
2017-06-24T01:55:26.586Z,19.0
2017-06-24T01:56:29.459Z,18.4
2017-06-24T01:57:31.137Z,18.4
2017-06-24T01:58:33.906Z,19.6
2017-06-24T01:59:35.677Z,19.0
2017-06-24T02:00:50.286Z,19.5
2017-06-24T02:01:52.045Z,19.1
2017-06-24T02:02:54.888Z,18.8
2017-06-24T02:03:56.630Z,18.8
2017-06-24T02:04:58.491Z,19.4
2017-06-24T02:06:00.276Z,20.0
2017-06-24T02:07:03.077Z,19.7
2017-06-24T02:08:04.893Z,19.3
2017-06-24T02:09:08.696Z,19.2
2017-06-24T02:10:10.418Z,19.8
2017-06-24T02:11:23.165Z,18.7
2017-06-24T02:12:24.936Z,19.4
2017-06-24T02:13:39.694Z,19.0
2017-06-24T02:14:41.474Z,18.6
2017-06-24T02:15:58.164Z,19.1
2017-06-24T02:17:00.045Z,19.1
2017-06-24T02:18:02.809Z,19.1
2017-06-24T02:19:04.490Z,18.4
2017-06-24T02:20:07.283Z,19.2
2017-06-24T02:21:09.055Z,19.4
2017-06-24T02:22:23.785Z,19.0
2017-06-24T02:23:25.613Z,18.2
2017-06-24T02:24:28.473Z,18.4
2017-06-24T02:25:30.167Z,18.6
2017-06-24T02:26:38.731Z,18.7
2017-06-24T02:27:40.392Z,18.7
2017-06-24T02:28:44.175Z,18.6
2017-06-24T02:29:45.900Z,18.7
2017-06-24T02:30:48.717Z,18.5
2017-06-24T02:31:50.501Z,18.6
2017-06-24T02:32:54.333Z,18.8
2017-06-24T02:33:56.025Z,19.1
2017-06-24T02:34:59.914Z,18.8
2017-06-24T02:36:01.681Z,18.7
2017-06-24T02:37:04.442Z,19.0
2017-06-24T02:38:06.203Z,19.8
2017-06-24T02:39:07.993Z,18.7
2017-06-24T02:40:09.689Z,19.0
2017-06-24T02:41:11.501Z,19.0
2017-06-24T02:42:13.309Z,19.2
2017-06-24T02:43:16.065Z,19.2
2017-06-24T02:44:18.022Z,18.4
2017-06-24T02:45:24.712Z,19.3
2017-06-24T02:46:26.384Z,19.2
2017-06-24T02:47:28.292Z,18.7
2017-06-24T02:48:30.024Z,19.2
2017-06-24T02:49:31.736Z,19.1
2017-06-24T02:50:33.486Z,18.2
2017-06-24T02:51:37.253Z,18.6
2017-06-24T02:52:38.968Z,19.1
2017-06-24T02:53:46.704Z,18.4
2017-06-24T02:54:48.380Z,19.0
2017-06-24T02:55:50.256Z,18.5
2017-06-24T02:56:52.033Z,19.1
2017-06-24T02:57:59.652Z,19.8
2017-06-24T02:59:01.426Z,18.7
2017-06-24T03:00:10.145Z,19.3
2017-06-24T03:01:11.940Z,19.0
2017-06-24T03:02:18.713Z,18.7
2017-06-24T03:03:20.494Z,18.7
2017-06-24T03:04:23.288Z,19.0
2017-06-24T03:05:25.044Z,19.0
2017-06-24T03:06:32.749Z,18.5
2017-06-24T03:07:34.587Z,18.6
2017-06-24T03:08:42.254Z,18.4
2017-06-24T03:09:43.910Z,18.6
2017-06-24T03:10:45.824Z,18.4
2017-06-24T03:11:47.650Z,19.1
2017-06-24T03:12:54.273Z,18.7
2017-06-24T03:13:56.043Z,19.2
2017-06-24T03:14:57.919Z,18.7
2017-06-24T03:15:59.622Z,19.2
2017-06-24T03:17:01.466Z,18.7
2017-06-24T03:18:03.258Z,18.8
2017-06-24T03:19:05.043Z,18.8
2017-06-24T03:20:06.827Z,19.0
2017-06-24T03:21:14.163Z,18.6
2017-06-24T03:22:15.955Z,18.3
2017-06-24T03:23:18.143Z,19.1
2017-06-24T03:24:20.066Z,18.4
2017-06-24T03:25:26.739Z,18.3
2017-06-24T03:26:28.486Z,19.0
2017-06-24T03:27:32.296Z,19.3
2017-06-24T03:28:33.965Z,18.5
2017-06-24T03:29:35.759Z,19.0
2017-06-24T03:30:37.569Z,19.1
2017-06-24T03:31:44.273Z,18.8
2017-06-24T03:32:46.355Z,18.5
2017-06-24T03:33:48.168Z,18.0
2017-06-24T03:34:49.935Z,18.3
2017-06-24T03:35:53.706Z,18.5
2017-06-24T03:36:56.156Z,18.3
2017-06-24T03:37:57.972Z,17.9
2017-06-24T03:38:59.726Z,18.2
2017-06-24T03:40:01.737Z,18.5
2017-06-24T03:41:03.414Z,17.6
2017-06-24T03:42:05.248Z,19.0
2017-06-24T03:43:06.992Z,18.3
2017-06-24T03:44:08.701Z,18.8
2017-06-24T03:45:10.466Z,18.5
2017-06-24T03:46:12.194Z,18.4
2017-06-24T03:47:13.940Z,19.1
2017-06-24T03:48:15.709Z,18.3
2017-06-24T03:49:17.444Z,18.4
2017-06-24T03:50:19.159Z,18.2
2017-06-24T03:51:20.909Z,18.1
2017-06-24T03:52:22.565Z,18.1
2017-06-24T03:53:24.429Z,18.1
2017-06-24T03:54:26.204Z,18.0
2017-06-24T03:55:28.066Z,18.4
2017-06-24T03:56:29.836Z,18.6
2017-06-24T03:57:31.616Z,17.8
2017-06-24T03:58:33.686Z,17.7
2017-06-24T03:59:35.382Z,17.9
2017-06-24T04:00:37.158Z,18.6
2017-06-24T04:01:38.863Z,17.8
2017-06-24T04:02:40.619Z,18.0
2017-06-24T04:03:42.369Z,18.0
2017-06-24T04:04:44.126Z,17.8
2017-06-24T04:05:45.931Z,18.0
2017-06-24T04:06:49.787Z,17.6
2017-06-24T04:07:51.558Z,17.8
2017-06-24T04:08:54.337Z,17.0
2017-06-24T04:09:56.112Z,17.0
2017-06-24T04:10:57.969Z,17.1
2017-06-24T04:11:59.673Z,17.2
2017-06-24T04:13:02.542Z,17.6
2017-06-24T04:14:04.336Z,17.8
2017-06-24T04:15:07.098Z,17.4
2017-06-24T04:16:08.865Z,16.7
2017-06-24T04:17:12.720Z,16.9
2017-06-24T04:18:14.388Z,17.2
2017-06-24T04:19:17.230Z,17.5
2017-06-24T04:20:19.014Z,17.3
2017-06-24T04:21:20.732Z,17.8
2017-06-24T04:22:22.458Z,17.6
2017-06-24T04:23:25.291Z,17.1
2017-06-24T04:24:27.037Z,17.5
2017-06-24T04:25:28.893Z,17.3
2017-06-24T04:26:30.694Z,16.9
2017-06-24T04:27:32.448Z,17.0
2017-06-24T04:28:34.202Z,17.0
2017-06-24T04:29:35.964Z,17.6
2017-06-24T04:30:37.750Z,17.0
2017-06-24T04:31:39.539Z,16.4
2017-06-24T04:32:41.294Z,17.1
2017-06-24T04:33:43.052Z,17.2
2017-06-24T04:34:44.876Z,16.7
2017-06-24T04:35:46.773Z,17.4
2017-06-24T04:36:48.472Z,17.3
2017-06-24T04:37:50.315Z,17.0
2017-06-24T04:38:52.075Z,16.5
2017-06-24T04:39:53.999Z,17.1
2017-06-24T04:40:55.801Z,16.6
2017-06-24T04:41:57.643Z,17.0
2017-06-24T04:42:59.456Z,16.4
2017-06-24T04:44:01.396Z,17.6
2017-06-24T04:45:03.177Z,17.2
2017-06-24T04:46:05.039Z,17.0
2017-06-24T04:47:06.860Z,17.0
2017-06-24T04:48:08.672Z,16.3
2017-06-24T04:49:10.456Z,17.3
2017-06-24T04:50:18.291Z,17.3
2017-06-24T04:51:19.997Z,17.5
2017-06-24T04:52:23.786Z,17.4
2017-06-24T04:53:25.543Z,17.3
2017-06-24T04:54:33.228Z,18.1
2017-06-24T04:55:35.034Z,18.0
2017-06-24T04:56:38.789Z,17.6
2017-06-24T04:57:40.561Z,17.5
2017-06-24T04:58:42.499Z,18.0
2017-06-24T04:59:44.281Z,16.9
2017-06-24T05:00:46.037Z,17.7
2017-06-24T05:01:47.875Z,17.4
2017-06-24T05:02:50.684Z,17.5
2017-06-24T05:03:52.353Z,17.3
2017-06-24T05:04:59.788Z,17.7
2017-06-24T05:06:01.530Z,17.7
2017-06-24T05:07:09.382Z,17.5
2017-06-24T05:08:11.155Z,17.0
2017-06-24T05:09:14.980Z,17.1
2017-06-24T05:10:16.746Z,17.3
2017-06-24T05:11:18.502Z,17.6
2017-06-24T05:12:20.224Z,17.0
2017-06-24T05:13:24.053Z,17.2
2017-06-24T05:14:25.787Z,17.9
2017-06-24T05:15:28.650Z,17.3
2017-06-24T05:16:30.386Z,18.0
2017-06-24T05:17:32.186Z,17.5
2017-06-24T05:18:33.917Z,18.1
2017-06-24T05:19:35.813Z,17.4
2017-06-24T05:20:37.545Z,17.1
2017-06-24T05:21:40.316Z,17.8
2017-06-24T05:22:42.123Z,17.2
2017-06-24T05:23:43.977Z,17.6
2017-06-24T05:24:45.690Z,17.8
2017-06-24T05:25:48.564Z,17.2
2017-06-24T05:26:50.310Z,17.0
2017-06-24T05:27:57.732Z,16.9
2017-06-24T05:28:59.510Z,16.6
2017-06-24T05:30:02.442Z,16.6
2017-06-24T05:31:04.195Z,17.0
2017-06-24T05:32:07.015Z,16.7
2017-06-24T05:33:08.793Z,17.0
2017-06-24T05:34:10.613Z,16.7
2017-06-24T05:35:12.375Z,17.4
2017-06-24T05:36:14.145Z,17.2
2017-06-24T05:37:15.891Z,17.6
2017-06-24T05:38:17.777Z,17.6
2017-06-24T05:39:19.620Z,17.1
2017-06-24T05:40:21.379Z,17.2
2017-06-24T05:41:23.155Z,17.1
2017-06-24T05:42:24.927Z,16.7
2017-06-24T05:43:26.620Z,16.6
2017-06-24T05:44:28.428Z,16.9
2017-06-24T05:45:30.216Z,16.4
2017-06-24T05:46:31.985Z,17.5
2017-06-24T05:47:33.756Z,17.8
2017-06-24T05:48:35.522Z,17.5
2017-06-24T05:49:37.273Z,17.5
2017-06-24T05:50:39.127Z,17.5
2017-06-24T05:51:41.238Z,17.5
2017-06-24T05:52:43.044Z,18.2
2017-06-24T05:53:44.775Z,18.0
2017-06-24T05:54:46.669Z,17.6
2017-06-24T05:55:48.429Z,17.1
2017-06-24T05:56:50.150Z,17.5
2017-06-24T05:57:51.925Z,16.5
2017-06-24T05:58:53.760Z,16.1
2017-06-24T05:59:55.465Z,17.6
2017-06-24T06:00:57.357Z,16.7
2017-06-24T06:01:59.195Z,17.5
2017-06-24T06:03:01.022Z,17.2
2017-06-24T06:04:02.759Z,17.0
2017-06-24T06:05:04.643Z,17.1
2017-06-24T06:06:06.403Z,17.1
2017-06-24T06:07:08.176Z,17.4
2017-06-24T06:08:09.934Z,17.2
2017-06-24T06:09:11.835Z,17.2
2017-06-24T06:10:13.614Z,17.2
2017-06-24T06:11:15.405Z,17.1
2017-06-24T06:12:17.238Z,17.4
2017-06-24T06:13:19.114Z,17.1
2017-06-24T06:14:20.852Z,16.9
2017-06-24T06:15:22.785Z,16.9
2017-06-24T06:16:24.546Z,16.0
2017-06-24T06:17:26.342Z,16.0
2017-06-24T06:18:28.236Z,16.9
2017-06-24T06:19:30.050Z,16.4
2017-06-24T06:20:31.747Z,17.1
2017-06-24T06:21:33.628Z,17.3
2017-06-24T06:22:35.476Z,16.7
2017-06-24T06:23:37.343Z,17.4
2017-06-24T06:24:39.080Z,17.1
2017-06-24T06:25:41.293Z,17.0
2017-06-24T06:26:43.088Z,17.4
2017-06-24T06:27:44.921Z,17.2
2017-06-24T06:28:46.692Z,17.7
2017-06-24T06:29:48.517Z,16.9
2017-06-24T06:30:50.286Z,17.1
2017-06-24T06:31:52.135Z,16.4
2017-06-24T06:32:53.921Z,17.1
2017-06-24T06:33:55.691Z,16.6
2017-06-24T06:34:57.482Z,16.2
2017-06-24T06:35:59.387Z,17.0
2017-06-24T06:37:01.103Z,16.3
2017-06-24T06:38:02.883Z,16.2
2017-06-24T06:39:04.683Z,16.7
2017-06-24T06:40:06.430Z,16.9
2017-06-24T06:41:08.188Z,17.4
2017-06-24T06:42:10.011Z,17.9
2017-06-24T06:43:11.711Z,16.5
2017-06-24T06:44:13.617Z,16.7
2017-06-24T06:45:15.329Z,16.0
2017-06-24T06:46:18.190Z,16.3
2017-06-24T06:47:20.327Z,16.6
2017-06-24T06:48:22.213Z,16.6
2017-06-24T06:49:23.959Z,17.0
2017-06-24T06:50:27.842Z,17.1
2017-06-24T06:51:29.964Z,17.1
2017-06-24T06:52:32.770Z,17.0
2017-06-24T06:53:34.510Z,16.6
2017-06-24T06:54:53.384Z,16.9
2017-06-24T06:55:55.085Z,16.7
2017-06-24T06:56:57.016Z,16.3
2017-06-24T06:57:58.759Z,16.5
2017-06-24T06:59:00.618Z,16.1
2017-06-24T07:00:02.439Z,16.5
2017-06-24T07:01:05.323Z,16.1
2017-06-24T07:02:07.093Z,16.6
2017-06-24T07:03:15.861Z,16.1
2017-06-24T07:04:17.620Z,17.2
2017-06-24T07:05:21.495Z,16.7
2017-06-24T07:06:23.206Z,16.7
2017-06-24T07:07:29.835Z,16.2
2017-06-24T07:08:31.527Z,15.7
2017-06-24T07:09:33.349Z,15.9
2017-06-24T07:10:35.047Z,15.7
2017-06-24T07:11:37.940Z,14.9
2017-06-24T07:12:39.710Z,14.8
2017-06-24T07:13:42.536Z,15.0
2017-06-24T07:14:44.327Z,15.2
2017-06-24T07:15:46.118Z,15.2
2017-06-24T07:16:47.809Z,14.5
2017-06-24T07:18:00.391Z,15.3
2017-06-24T07:19:02.196Z,14.6
2017-06-24T07:20:05.113Z,15.5
2017-06-24T07:21:06.876Z,15.0
2017-06-24T07:22:08.714Z,15.0
2017-06-24T07:23:10.459Z,14.8
2017-06-24T07:24:12.273Z,14.5
2017-06-24T07:25:14.048Z,15.2
2017-06-24T07:26:17.982Z,15.8
2017-06-24T07:27:19.742Z,15.3
2017-06-24T07:28:22.571Z,15.3
2017-06-24T07:29:24.339Z,15.2
2017-06-24T07:30:32.908Z,15.2
2017-06-24T07:31:34.694Z,15.2
2017-06-24T07:32:36.863Z,15.2
2017-06-24T07:33:38.846Z,15.1
2017-06-24T07:34:41.736Z,15.5
2017-06-24T07:35:43.647Z,15.8
2017-06-24T07:36:47.459Z,14.9
2017-06-24T07:37:49.185Z,15.7
2017-06-24T07:38:57.818Z,15.9
2017-06-24T07:40:00.309Z,16.4
2017-06-24T07:41:02.120Z,15.8
2017-06-24T07:42:03.860Z,16.1
2017-06-24T07:43:05.817Z,15.7
2017-06-24T07:44:07.583Z,16.6
2017-06-24T07:45:21.324Z,16.3
2017-06-24T07:46:23.446Z,16.5
2017-06-24T07:47:26.057Z,17.1
2017-06-24T07:48:27.900Z,17.1
2017-06-24T07:52:50.803Z,16.7
2017-06-24T07:53:58.341Z,17.1
2017-06-24T07:55:00.124Z,16.9
2017-06-24T07:56:17.764Z,16.4
2017-06-24T07:57:19.624Z,16.1
2017-06-24T07:58:21.341Z,16.7
2017-06-24T07:59:23.164Z,16.4
2017-06-24T08:00:25.944Z,16.3
2017-06-24T08:01:27.649Z,16.2
2017-06-24T08:02:29.541Z,15.9
2017-06-24T08:03:31.300Z,15.6
2017-06-24T08:04:34.089Z,15.8
2017-06-24T08:05:36.268Z,15.8
2017-06-24T08:06:44.792Z,15.7
2017-06-24T08:07:46.618Z,15.8
2017-06-24T08:08:50.451Z,16.9
2017-06-24T08:09:52.206Z,17.0
2017-06-24T08:10:54.086Z,16.7
2017-06-24T08:11:55.853Z,15.9
2017-06-24T08:26:02.371Z,15.4
2017-06-24T08:27:04.159Z,16.0
2017-06-24T08:28:06.973Z,16.1
2017-06-24T08:29:08.721Z,15.4
2017-06-24T08:30:12.526Z,15.7
2017-06-24T08:31:14.207Z,15.8
2017-06-24T08:32:15.983Z,15.4
2017-06-24T08:33:17.750Z,15.2
2017-06-24T08:34:35.490Z,15.1
2017-06-24T08:35:37.242Z,15.8
2017-06-24T08:36:39.096Z,16.3
2017-06-24T08:37:40.837Z,15.7
2017-06-24T08:38:42.738Z,15.2
2017-06-24T08:39:44.587Z,15.8
2017-06-24T08:40:46.436Z,15.9
2017-06-24T08:41:48.286Z,15.8
2017-06-24T08:42:50.141Z,15.6
2017-06-24T08:43:51.962Z,16.0
2017-06-24T08:44:53.694Z,15.5
2017-06-24T08:45:55.527Z,15.6
2017-06-24T08:46:57.374Z,16.1
2017-06-24T08:47:59.056Z,15.7
2017-06-24T08:49:00.805Z,15.8
2017-06-24T08:50:02.551Z,15.5
2017-06-24T08:51:04.717Z,15.5
2017-06-24T08:52:06.479Z,16.1
2017-06-24T08:53:08.481Z,15.9
2017-06-24T08:54:10.238Z,16.9
2017-06-24T08:55:13.092Z,15.9
2017-06-24T08:56:14.852Z,15.9
2017-06-24T08:57:16.687Z,16.1
2017-06-24T08:58:18.439Z,15.7
2017-06-24T08:59:20.278Z,15.9
2017-06-24T09:00:22.377Z,15.9
2017-06-24T09:01:24.242Z,15.4
2017-06-24T09:02:26.014Z,15.9
2017-06-24T09:03:27.824Z,15.8
2017-06-24T09:04:29.640Z,15.9
2017-06-24T09:05:31.529Z,16.0
2017-06-24T09:06:33.292Z,16.1
2017-06-24T09:07:35.208Z,17.3
2017-06-24T09:08:37.040Z,16.5
2017-06-24T09:09:38.961Z,15.7
2017-06-24T09:10:40.720Z,16.2
2017-06-24T09:11:42.634Z,16.0
2017-06-24T09:12:44.416Z,15.9
2017-06-24T09:13:46.280Z,15.8
2017-06-24T09:14:48.054Z,16.3
2017-06-24T09:15:49.897Z,15.4
2017-06-24T09:16:51.737Z,16.5
2017-06-24T09:17:53.587Z,16.7
2017-06-24T09:18:55.336Z,16.1
2017-06-24T09:19:57.139Z,16.1
2017-06-24T09:20:58.915Z,16.7
2017-06-24T09:22:00.778Z,16.0
2017-06-24T09:23:02.609Z,16.2
2017-06-24T09:24:04.397Z,16.7
2017-06-24T09:25:06.105Z,16.4
2017-06-24T09:26:08.076Z,16.2
2017-06-24T09:27:09.881Z,16.2
2017-06-24T09:28:11.704Z,15.6
2017-06-24T09:29:13.524Z,16.5
2017-06-24T09:30:15.311Z,15.7
2017-06-24T09:31:17.085Z,16.1
2017-06-24T09:32:18.843Z,15.5
2017-06-24T09:33:20.575Z,15.9
2017-06-24T09:34:22.415Z,15.7
2017-06-24T09:35:24.155Z,16.0
2017-06-24T09:36:26.310Z,16.0
2017-06-24T09:37:28.054Z,15.5
2017-06-24T09:38:29.887Z,15.5
2017-06-24T09:39:31.616Z,15.4
2017-06-24T09:40:33.512Z,15.4
2017-06-24T09:41:35.249Z,15.7
2017-06-24T09:42:38.860Z,15.8
2017-06-24T09:43:40.608Z,16.0
2017-06-24T09:44:42.404Z,15.5
2017-06-24T09:45:44.143Z,15.5
2017-06-24T09:46:47.032Z,16.5
2017-06-24T09:47:48.837Z,16.2
2017-06-24T09:48:50.615Z,16.2
2017-06-24T09:49:52.410Z,16.2
2017-06-24T09:50:56.329Z,16.3
2017-06-24T09:51:58.076Z,16.2
2017-06-24T09:52:59.945Z,16.5
2017-06-24T09:54:01.704Z,15.8
2017-06-24T09:55:03.670Z,16.4
2017-06-24T09:56:05.502Z,16.1
2017-06-24T09:57:07.409Z,16.2
2017-06-24T09:58:09.206Z,15.9
2017-06-24T09:59:11.178Z,15.4
2017-06-24T10:00:12.858Z,16.0
2017-06-24T10:01:14.762Z,15.1
2017-06-24T10:02:16.865Z,15.8
2017-06-24T10:03:18.910Z,15.5
2017-06-24T10:04:21.056Z,15.8
2017-06-24T10:05:27.656Z,15.5
2017-06-24T10:06:29.719Z,15.4
2017-06-24T10:07:33.845Z,15.7
2017-06-24T10:08:35.805Z,15.6
2017-06-24T10:09:39.065Z,15.7
2017-06-24T10:10:41.117Z,16.1
2017-06-24T10:11:43.258Z,16.1
2017-06-24T10:12:45.302Z,16.4
2017-06-24T10:13:47.423Z,16.3
2017-06-24T10:14:49.325Z,15.9
2017-06-24T10:15:51.240Z,15.9
2017-06-24T10:16:53.814Z,15.9
2017-06-24T10:17:55.780Z,16.0
2017-06-24T10:18:57.830Z,16.3
2017-06-24T10:20:00.860Z,16.1
2017-06-24T10:21:03.019Z,16.2
2017-06-24T10:22:11.066Z,17.1
2017-06-24T10:23:13.092Z,16.3
2017-06-24T10:24:16.333Z,16.6
2017-06-24T10:25:18.328Z,16.9
2017-06-24T10:26:20.324Z,16.5
2017-06-24T10:27:22.651Z,16.5
2017-06-24T10:28:25.802Z,16.7
2017-06-24T10:29:27.736Z,16.6
2017-06-24T10:30:30.691Z,17.3
2017-06-24T10:31:32.566Z,15.9
2017-06-24T10:32:35.586Z,16.5
2017-06-24T10:33:37.474Z,16.5
2017-06-24T10:34:46.472Z,16.9
2017-06-24T10:35:48.390Z,15.9
2017-06-24T10:36:50.371Z,16.1
2017-06-24T10:37:52.204Z,16.3
2017-06-24T10:38:58.828Z,15.8
2017-06-24T10:40:00.802Z,16.1
2017-06-24T10:41:03.763Z,15.8
2017-06-24T10:42:05.691Z,15.4
2017-06-24T10:43:08.580Z,15.5
2017-06-24T10:44:10.591Z,15.8
2017-06-24T10:45:13.772Z,15.6
2017-06-24T10:46:15.731Z,15.1
2017-06-24T10:47:23.344Z,15.7
2017-06-24T10:48:25.239Z,14.4
2017-06-24T10:49:28.655Z,15.7
2017-06-24T10:50:30.506Z,15.1
2017-06-24T10:51:34.403Z,16.1
2017-06-24T10:52:36.390Z,15.8
2017-06-24T10:53:38.448Z,15.8
2017-06-24T10:54:40.462Z,14.9
2017-06-24T10:55:47.337Z,15.1
2017-06-24T10:56:49.235Z,15.2
2017-06-24T10:57:53.163Z,15.1
2017-06-24T10:58:55.068Z,15.3
2017-06-24T11:00:08.070Z,14.9
2017-06-24T11:01:10.065Z,15.3
2017-06-24T11:02:12.725Z,15.4
2017-06-24T11:03:14.622Z,15.8
2017-06-24T11:04:21.388Z,15.5
2017-06-24T11:05:23.410Z,16.1
2017-06-24T11:06:25.442Z,15.7
2017-06-24T11:07:27.307Z,15.6
2017-06-24T11:08:31.249Z,15.9
2017-06-24T11:09:33.066Z,15.4
2017-06-24T11:10:35.002Z,15.6
2017-06-24T11:11:36.841Z,15.4
2017-06-24T11:12:38.804Z,15.4
2017-06-24T11:13:40.719Z,15.7
2017-06-24T11:14:42.723Z,15.0
2017-06-24T11:15:44.546Z,15.7
2017-06-24T11:16:46.304Z,15.2
2017-06-24T11:17:48.301Z,16.1
2017-06-24T11:18:50.236Z,15.5
2017-06-24T11:19:52.133Z,15.3
2017-06-24T11:20:54.103Z,15.2
2017-06-24T11:21:56.043Z,15.8
2017-06-24T11:22:58.013Z,15.8
2017-06-24T11:23:59.855Z,15.2
2017-06-24T11:25:01.698Z,16.0
2017-06-24T11:26:03.846Z,15.8
2017-06-24T11:27:05.863Z,15.7
2017-06-24T11:28:07.710Z,16.1
2017-06-24T11:29:09.513Z,16.2
2017-06-24T11:30:11.333Z,16.6
2017-06-24T11:31:13.002Z,15.8
2017-06-24T11:32:14.920Z,15.9
2017-06-24T11:33:16.661Z,15.7
2017-06-24T11:34:18.708Z,16.4
2017-06-24T11:35:20.862Z,15.8
2017-06-24T11:36:22.776Z,16.1
2017-06-24T11:37:24.763Z,15.7
2017-06-24T11:38:26.798Z,16.1
2017-06-24T11:39:28.853Z,15.2
2017-06-24T11:40:30.981Z,15.2
2017-06-24T11:41:33.071Z,15.5
2017-06-24T11:42:34.949Z,15.1
2017-06-24T11:43:36.954Z,16.3
2017-06-24T11:44:38.862Z,16.0
2017-06-24T11:45:40.877Z,15.8
2017-06-24T11:46:42.680Z,15.9
2017-06-24T11:47:44.757Z,15.3
2017-06-24T11:48:46.604Z,15.4
2017-06-24T11:49:48.541Z,15.0
2017-06-24T11:50:50.405Z,15.9
2017-06-24T11:51:52.214Z,15.8
2017-06-24T11:52:54.071Z,15.2
2017-06-24T11:53:56.003Z,15.4
2017-06-24T11:54:57.909Z,15.0
2017-06-24T11:55:59.911Z,15.7
2017-06-24T11:57:01.680Z,15.7
2017-06-24T11:58:03.658Z,15.8
2017-06-24T11:59:05.483Z,16.1
2017-06-24T12:00:07.391Z,16.2
2017-06-24T12:01:09.146Z,15.7
2017-06-24T12:02:11.068Z,16.3
2017-06-24T12:03:12.917Z,15.8
2017-06-24T12:04:14.636Z,16.2
2017-06-24T12:05:16.623Z,16.7
2017-06-24T12:06:18.405Z,17.2
2017-06-24T12:07:20.249Z,16.6
2017-06-24T12:08:21.980Z,16.5
2017-06-24T12:09:23.829Z,17.0
2017-06-24T12:10:25.683Z,16.7
2017-06-24T12:11:27.536Z,16.9
2017-06-24T12:12:29.551Z,17.2
2017-06-24T12:13:31.414Z,16.0
2017-06-24T12:14:33.250Z,16.9
2017-06-24T12:15:35.150Z,16.7
2017-06-24T12:16:36.862Z,16.5
2017-06-24T12:17:38.715Z,17.5
2017-06-24T12:18:40.492Z,17.3
2017-06-24T12:19:42.269Z,17.6
2017-06-24T12:20:44.021Z,17.2
2017-06-24T12:21:46.805Z,17.3
2017-06-24T12:22:48.523Z,17.0
2017-06-24T12:23:50.380Z,17.4
2017-06-24T12:24:52.171Z,17.3
2017-06-24T12:25:54.014Z,16.9
2017-06-24T12:26:55.873Z,16.9
2017-06-24T12:27:57.716Z,17.8
2017-06-24T12:28:59.538Z,17.1
2017-06-24T12:30:01.513Z,17.1
2017-06-24T12:31:03.195Z,16.9
2017-06-24T12:32:04.980Z,17.7
2017-06-24T12:33:06.744Z,16.6
2017-06-24T12:34:08.529Z,16.4
2017-06-24T12:35:10.235Z,16.2
2017-06-24T12:36:13.049Z,16.4
2017-06-24T12:37:14.824Z,16.5
2017-06-24T12:38:16.749Z,16.5
2017-06-24T12:39:18.504Z,16.9
2017-06-24T12:40:20.305Z,16.9
2017-06-24T12:41:22.134Z,16.5
2017-06-24T12:42:23.797Z,17.2
2017-06-24T12:43:25.596Z,16.4
2017-06-24T12:44:27.446Z,16.9
2017-06-24T12:45:29.197Z,17.7
2017-06-24T12:46:30.986Z,16.3
2017-06-24T12:47:32.841Z,16.9
2017-06-24T12:48:34.607Z,17.0
2017-06-24T12:49:36.326Z,16.7
2017-06-24T12:50:38.127Z,16.4
2017-06-24T12:51:39.919Z,16.3
2017-06-24T12:52:41.785Z,16.0
2017-06-24T12:53:43.798Z,16.3
2017-06-24T12:54:45.691Z,16.4
2017-06-24T12:55:47.608Z,16.9
2017-06-24T12:56:49.560Z,16.5
2017-06-24T12:57:51.464Z,16.7
2017-06-24T12:58:53.523Z,16.6
2017-06-24T12:59:55.630Z,16.5
2017-06-24T13:01:12.263Z,16.9
2017-06-24T13:02:14.161Z,16.6
2017-06-24T13:28:04.162Z,17.8
2017-06-24T13:29:05.935Z,18.0
2017-06-24T13:30:07.749Z,16.7
2017-06-24T13:31:09.484Z,16.9
2017-06-24T13:32:11.255Z,17.2
2017-06-24T13:33:12.996Z,17.2
2017-06-24T13:34:14.801Z,17.3
2017-06-24T13:35:16.523Z,17.2
2017-06-24T13:36:18.350Z,17.0
2017-06-24T13:37:20.149Z,16.6
2017-06-24T13:38:22.943Z,17.1
2017-06-24T13:39:24.736Z,16.9
2017-06-24T13:40:26.562Z,17.5
2017-06-24T13:41:28.302Z,16.9
2017-06-24T13:42:29.991Z,16.7
2017-06-24T13:43:31.724Z,16.7
2017-06-24T13:44:33.493Z,17.5
2017-06-24T13:45:35.269Z,18.0
2017-06-24T13:46:37.119Z,17.1
2017-06-24T13:47:38.864Z,16.7
2017-06-24T13:48:40.722Z,16.2
2017-06-24T13:49:42.497Z,17.0
2017-06-24T13:50:44.378Z,17.9
2017-06-24T13:51:46.099Z,17.5
2017-06-24T13:52:48.320Z,17.4
2017-06-24T13:53:50.204Z,18.5
2017-06-24T13:54:51.996Z,17.0
2017-06-24T13:55:53.796Z,16.7
2017-06-24T13:56:55.595Z,16.9
2017-06-24T13:57:57.744Z,17.5
2017-06-24T13:58:59.513Z,17.6
2017-06-24T14:00:01.339Z,17.0
2017-06-24T14:01:03.080Z,16.5
2017-06-24T14:02:04.820Z,17.0
2017-06-24T14:03:06.665Z,17.1
2017-06-24T14:04:08.530Z,16.5
2017-06-24T14:05:10.305Z,17.5
2017-06-24T14:06:12.094Z,16.9
2017-06-24T14:07:14.151Z,17.4
2017-06-24T14:08:15.912Z,17.5
2017-06-24T14:09:17.690Z,16.7
2017-06-24T14:10:19.437Z,16.9
2017-06-24T14:11:22.359Z,17.2
2017-06-24T14:12:24.216Z,16.7
2017-06-24T14:13:25.930Z,18.0
2017-06-24T14:14:27.593Z,17.3
2017-06-24T14:15:29.394Z,17.1
2017-06-24T14:16:31.131Z,17.7
2017-06-24T14:17:32.905Z,17.5
2017-06-24T14:18:34.637Z,17.5
2017-06-24T14:19:36.464Z,17.4
2017-06-24T14:20:38.192Z,17.6
2017-06-24T14:21:40.005Z,17.4
2017-06-24T14:22:41.779Z,17.4
2017-06-24T14:23:43.670Z,17.5
2017-06-24T14:24:45.515Z,16.9
2017-06-24T14:25:47.316Z,16.9
2017-06-24T14:26:49.076Z,16.9
2017-06-24T14:27:50.954Z,17.2
2017-06-24T14:28:52.749Z,17.6
2017-06-24T14:29:54.625Z,17.3
2017-06-24T14:30:56.335Z,17.3
2017-06-24T14:31:58.185Z,17.1
2017-06-24T14:32:59.982Z,17.3
2017-06-24T14:34:01.710Z,17.5
2017-06-24T14:35:03.471Z,17.0
2017-06-24T14:36:05.304Z,18.1
2017-06-24T14:37:07.034Z,16.7
2017-06-24T14:38:08.972Z,16.6
2017-06-24T14:39:10.767Z,17.1
2017-06-24T14:40:12.517Z,17.0
2017-06-24T14:41:14.255Z,17.0